sensor_id;sensor_type;location;lat;lon;timestamp;P1;durP1;ratioP1;P2;durP2;ratioP2
45344;SDS011;31078;48.304;11.896;2023-03-05T00:00:11;49.13;;;18.02;;
45344;SDS011;31078;48.304;11.896;2023-03-05T00:02:39;58.20;;;19.75;;
45344;SDS011;31078;48.304;11.896;2023-03-05T00:05:09;58.25;;;20.48;;
45344;SDS011;31078;48.304;11.896;2023-03-05T00:07:39;61.55;;;19.88;;
45344;SDS011;31078;48.304;11.896;2023-03-05T00:10:06;63.90;;;20.45;;
45344;SDS011;31078;48.304;11.896;2023-03-05T00:12:33;59.65;;;19.27;;
45344;SDS011;31078;48.304;11.896;2023-03-05T00:14:59;70.80;;;20.90;;
45344;SDS011;31078;48.304;11.896;2023-03-05T00:17:27;65.90;;;19.60;;
45344;SDS011;31078;48.304;11.896;2023-03-05T00:19:54;49.67;;;18.80;;
45344;SDS011;31078;48.304;11.896;2023-03-05T00:22:21;55.03;;;19.60;;
45344;SDS011;31078;48.304;11.896;2023-03-05T00:24:49;64.20;;;19.95;;
45344;SDS011;31078;48.304;11.896;2023-03-05T00:27:15;53.42;;;19.30;;
45344;SDS011;31078;48.304;11.896;2023-03-05T00:29:42;51.70;;;19.40;;
45344;SDS011;31078;48.304;11.896;2023-03-05T00:32:08;57.28;;;18.92;;
45344;SDS011;31078;48.304;11.896;2023-03-05T00:34:36;53.35;;;19.95;;
45344;SDS011;31078;48.304;11.896;2023-03-05T00:37:03;57.67;;;19.75;;
45344;SDS011;31078;48.304;11.896;2023-03-05T00:39:29;47.78;;;17.70;;
45344;SDS011;31078;48.304;11.896;2023-03-05T00:41:56;52.55;;;19.95;;
45344;SDS011;31078;48.304;11.896;2023-03-05T00:44:22;54.70;;;18.40;;
45344;SDS011;31078;48.304;11.896;2023-03-05T00:46:49;51.83;;;18.77;;
45344;SDS011;31078;48.304;11.896;2023-03-05T00:49:16;56.22;;;19.70;;
45344;SDS011;31078;48.304;11.896;2023-03-05T00:51:45;55.35;;;19.42;;
45344;SDS011;31078;48.304;11.896;2023-03-05T00:54:11;50.22;;;19.17;;
45344;SDS011;31078;48.304;11.896;2023-03-05T00:56:41;57.40;;;20.13;;
45344;SDS011;31078;48.304;11.896;2023-03-05T00:59:08;53.53;;;18.40;;
45344;SDS011;31078;48.304;11.896;2023-03-05T01:01:34;55.75;;;18.85;;
45344;SDS011;31078;48.304;11.896;2023-03-05T01:04:00;55.53;;;19.58;;
45344;SDS011;31078;48.304;11.896;2023-03-05T01:06:27;55.42;;;19.13;;
45344;SDS011;31078;48.304;11.896;2023-03-05T01:08:55;58.22;;;20.42;;
45344;SDS011;31078;48.304;11.896;2023-03-05T01:11:23;50.60;;;20.27;;
45344;SDS011;31078;48.304;11.896;2023-03-05T01:13:50;60.40;;;19.27;;
45344;SDS011;31078;48.304;11.896;2023-03-05T01:16:16;59.90;;;20.10;;
45344;SDS011;31078;48.304;11.896;2023-03-05T01:18:42;55.08;;;20.40;;
45344;SDS011;31078;48.304;11.896;2023-03-05T01:21:09;63.83;;;21.23;;
45344;SDS011;31078;48.304;11.896;2023-03-05T01:23:35;54.47;;;19.20;;
45344;SDS011;31078;48.304;11.896;2023-03-05T01:26:04;59.65;;;21.45;;
45344;SDS011;31078;48.304;11.896;2023-03-05T01:28:32;57.42;;;20.33;;
45344;SDS011;31078;48.304;11.896;2023-03-05T01:30:59;58.70;;;21.33;;
45344;SDS011;31078;48.304;11.896;2023-03-05T01:33:26;56.88;;;19.90;;
45344;SDS011;31078;48.304;11.896;2023-03-05T01:35:52;54.28;;;20.38;;
45344;SDS011;31078;48.304;11.896;2023-03-05T01:38:19;59.97;;;20.92;;
45344;SDS011;31078;48.304;11.896;2023-03-05T01:40:51;50.83;;;19.25;;
45344;SDS011;31078;48.304;11.896;2023-03-05T01:43:21;53.45;;;20.48;;
45344;SDS011;31078;48.304;11.896;2023-03-05T01:48:55;64.00;;;20.67;;
45344;SDS011;31078;48.304;11.896;2023-03-05T01:51:26;65.68;;;21.27;;
45344;SDS011;31078;48.304;11.896;2023-03-05T01:53:54;59.20;;;20.65;;
45344;SDS011;31078;48.304;11.896;2023-03-05T01:56:23;57.85;;;20.00;;
45344;SDS011;31078;48.304;11.896;2023-03-05T01:58:53;60.88;;;21.58;;
45344;SDS011;31078;48.304;11.896;2023-03-05T02:01:27;50.80;;;19.50;;
45344;SDS011;31078;48.304;11.896;2023-03-05T02:03:55;55.55;;;19.73;;
45344;SDS011;31078;48.304;11.896;2023-03-05T02:06:22;58.40;;;21.30;;
45344;SDS011;31078;48.304;11.896;2023-03-05T02:08:48;65.57;;;20.75;;
45344;SDS011;31078;48.304;11.896;2023-03-05T02:11:15;61.47;;;21.67;;
45344;SDS011;31078;48.304;11.896;2023-03-05T02:13:41;64.32;;;23.00;;
45344;SDS011;31078;48.304;11.896;2023-03-05T02:16:09;61.17;;;20.70;;
45344;SDS011;31078;48.304;11.896;2023-03-05T02:18:36;59.85;;;20.65;;
45344;SDS011;31078;48.304;11.896;2023-03-05T02:21:04;62.38;;;22.20;;
45344;SDS011;31078;48.304;11.896;2023-03-05T02:23:32;63.78;;;21.77;;
45344;SDS011;31078;48.304;11.896;2023-03-05T02:26:00;53.90;;;19.65;;
45344;SDS011;31078;48.304;11.896;2023-03-05T02:28:29;54.40;;;20.95;;
45344;SDS011;31078;48.304;11.896;2023-03-05T02:31:00;60.83;;;21.63;;
45344;SDS011;31078;48.304;11.896;2023-03-05T02:33:27;61.80;;;21.70;;
45344;SDS011;31078;48.304;11.896;2023-03-05T02:35:54;62.33;;;22.50;;
45344;SDS011;31078;48.304;11.896;2023-03-05T02:38:22;61.92;;;21.58;;
45344;SDS011;31078;48.304;11.896;2023-03-05T02:40:48;58.60;;;21.25;;
45344;SDS011;31078;48.304;11.896;2023-03-05T02:43:15;62.60;;;22.35;;
45344;SDS011;31078;48.304;11.896;2023-03-05T02:45:41;70.80;;;23.05;;
45344;SDS011;31078;48.304;11.896;2023-03-05T02:48:10;60.08;;;22.33;;
45344;SDS011;31078;48.304;11.896;2023-03-05T02:50:37;65.28;;;22.48;;
45344;SDS011;31078;48.304;11.896;2023-03-05T02:53:04;66.95;;;23.27;;
45344;SDS011;31078;48.304;11.896;2023-03-05T02:55:32;57.42;;;22.67;;
45344;SDS011;31078;48.304;11.896;2023-03-05T02:58:00;58.63;;;20.75;;
45344;SDS011;31078;48.304;11.896;2023-03-05T03:00:26;62.63;;;22.83;;
45344;SDS011;31078;48.304;11.896;2023-03-05T03:02:53;60.38;;;23.45;;
45344;SDS011;31078;48.304;11.896;2023-03-05T03:05:19;60.20;;;21.60;;
45344;SDS011;31078;48.304;11.896;2023-03-05T03:07:46;69.53;;;23.25;;
45344;SDS011;31078;48.304;11.896;2023-03-05T03:10:12;57.47;;;20.88;;
45344;SDS011;31078;48.304;11.896;2023-03-05T03:12:41;64.35;;;22.83;;
45344;SDS011;31078;48.304;11.896;2023-03-05T03:15:09;59.55;;;21.75;;
45344;SDS011;31078;48.304;11.896;2023-03-05T03:17:38;63.53;;;21.85;;
45344;SDS011;31078;48.304;11.896;2023-03-05T03:20:05;67.30;;;21.92;;
45344;SDS011;31078;48.304;11.896;2023-03-05T03:22:35;66.57;;;22.33;;
45344;SDS011;31078;48.304;11.896;2023-03-05T03:25:01;66.47;;;22.33;;
45344;SDS011;31078;48.304;11.896;2023-03-05T03:27:29;58.85;;;22.38;;
45344;SDS011;31078;48.304;11.896;2023-03-05T03:29:57;59.42;;;20.90;;
45344;SDS011;31078;48.304;11.896;2023-03-05T03:32:26;61.45;;;22.15;;
45344;SDS011;31078;48.304;11.896;2023-03-05T03:34:53;71.88;;;23.67;;
45344;SDS011;31078;48.304;11.896;2023-03-05T03:37:19;59.33;;;20.50;;
45344;SDS011;31078;48.304;11.896;2023-03-05T03:39:46;65.38;;;20.63;;
45344;SDS011;31078;48.304;11.896;2023-03-05T03:42:15;58.60;;;22.02;;
45344;SDS011;31078;48.304;11.896;2023-03-05T03:44:41;60.08;;;22.02;;
45344;SDS011;31078;48.304;11.896;2023-03-05T03:47:09;59.53;;;21.63;;
45344;SDS011;31078;48.304;11.896;2023-03-05T03:49:36;65.10;;;24.45;;
45344;SDS011;31078;48.304;11.896;2023-03-05T03:52:02;62.80;;;22.17;;
45344;SDS011;31078;48.304;11.896;2023-03-05T03:54:29;57.65;;;22.63;;
45344;SDS011;31078;48.304;11.896;2023-03-05T03:56:56;58.97;;;21.95;;
45344;SDS011;31078;48.304;11.896;2023-03-05T03:59:23;59.08;;;21.98;;
45344;SDS011;31078;48.304;11.896;2023-03-05T04:01:50;64.88;;;21.98;;
45344;SDS011;31078;48.304;11.896;2023-03-05T04:04:18;65.32;;;23.27;;
45344;SDS011;31078;48.304;11.896;2023-03-05T04:06:44;58.38;;;22.00;;
45344;SDS011;31078;48.304;11.896;2023-03-05T04:09:10;60.83;;;22.23;;
45344;SDS011;31078;48.304;11.896;2023-03-05T04:11:37;64.07;;;22.45;;
45344;SDS011;31078;48.304;11.896;2023-03-05T04:14:03;56.42;;;21.75;;
45344;SDS011;31078;48.304;11.896;2023-03-05T04:16:30;57.67;;;21.10;;
45344;SDS011;31078;48.304;11.896;2023-03-05T04:18:57;65.03;;;21.77;;
45344;SDS011;31078;48.304;11.896;2023-03-05T04:21:25;61.25;;;21.48;;
45344;SDS011;31078;48.304;11.896;2023-03-05T04:23:51;71.38;;;21.45;;
45344;SDS011;31078;48.304;11.896;2023-03-05T04:26:18;69.07;;;21.73;;
45344;SDS011;31078;48.304;11.896;2023-03-05T04:28:45;65.72;;;22.90;;
45344;SDS011;31078;48.304;11.896;2023-03-05T04:31:12;60.78;;;21.67;;
45344;SDS011;31078;48.304;11.896;2023-03-05T04:33:38;59.60;;;21.23;;
45344;SDS011;31078;48.304;11.896;2023-03-05T04:36:05;67.60;;;22.08;;
45344;SDS011;31078;48.304;11.896;2023-03-05T04:38:33;61.88;;;20.98;;
45344;SDS011;31078;48.304;11.896;2023-03-05T04:41:00;59.83;;;20.38;;
45344;SDS011;31078;48.304;11.896;2023-03-05T04:43:26;62.42;;;21.13;;
45344;SDS011;31078;48.304;11.896;2023-03-05T04:45:53;72.05;;;22.52;;
45344;SDS011;31078;48.304;11.896;2023-03-05T04:48:20;53.17;;;18.92;;
45344;SDS011;31078;48.304;11.896;2023-03-05T04:50:47;59.38;;;20.35;;
45344;SDS011;31078;48.304;11.896;2023-03-05T04:53:13;59.40;;;20.80;;
45344;SDS011;31078;48.304;11.896;2023-03-05T04:55:41;58.33;;;19.70;;
45344;SDS011;31078;48.304;11.896;2023-03-05T04:58:08;63.60;;;20.50;;
45344;SDS011;31078;48.304;11.896;2023-03-05T05:00:34;69.75;;;21.50;;
45344;SDS011;31078;48.304;11.896;2023-03-05T05:03:01;67.45;;;20.50;;
45344;SDS011;31078;48.304;11.896;2023-03-05T05:05:28;64.05;;;20.33;;
45344;SDS011;31078;48.304;11.896;2023-03-05T05:07:55;61.75;;;20.85;;
45344;SDS011;31078;48.304;11.896;2023-03-05T05:10:22;62.22;;;20.02;;
45344;SDS011;31078;48.304;11.896;2023-03-05T05:12:51;63.80;;;20.77;;
45344;SDS011;31078;48.304;11.896;2023-03-05T05:15:17;62.22;;;19.35;;
45344;SDS011;31078;48.304;11.896;2023-03-05T05:17:44;61.60;;;19.30;;
45344;SDS011;31078;48.304;11.896;2023-03-05T05:20:11;61.92;;;20.60;;
45344;SDS011;31078;48.304;11.896;2023-03-05T05:22:39;62.40;;;20.48;;
45344;SDS011;31078;48.304;11.896;2023-03-05T05:25:06;79.13;;;21.88;;
45344;SDS011;31078;48.304;11.896;2023-03-05T05:27:34;62.10;;;21.17;;
45344;SDS011;31078;48.304;11.896;2023-03-05T05:30:02;69.30;;;22.13;;
45344;SDS011;31078;48.304;11.896;2023-03-05T05:32:29;63.25;;;21.08;;
45344;SDS011;31078;48.304;11.896;2023-03-05T05:34:56;76.63;;;21.63;;
45344;SDS011;31078;48.304;11.896;2023-03-05T05:37:24;64.65;;;20.88;;
45344;SDS011;31078;48.304;11.896;2023-03-05T05:39:51;62.72;;;19.67;;
45344;SDS011;31078;48.304;11.896;2023-03-05T05:42:18;56.40;;;20.52;;
45344;SDS011;31078;48.304;11.896;2023-03-05T05:44:46;53.80;;;20.17;;
45344;SDS011;31078;48.304;11.896;2023-03-05T05:47:14;65.18;;;20.27;;
45344;SDS011;31078;48.304;11.896;2023-03-05T05:49:42;69.72;;;22.48;;
45344;SDS011;31078;48.304;11.896;2023-03-05T05:52:09;64.25;;;21.45;;
45344;SDS011;31078;48.304;11.896;2023-03-05T05:54:35;63.92;;;20.88;;
45344;SDS011;31078;48.304;11.896;2023-03-05T05:57:03;62.95;;;20.90;;
45344;SDS011;31078;48.304;11.896;2023-03-05T05:59:29;91.97;;;32.25;;
45344;SDS011;31078;48.304;11.896;2023-03-05T06:01:55;71.60;;;22.42;;
45344;SDS011;31078;48.304;11.896;2023-03-05T06:04:23;62.65;;;20.30;;
45344;SDS011;31078;48.304;11.896;2023-03-05T06:06:50;61.92;;;20.70;;
45344;SDS011;31078;48.304;11.896;2023-03-05T06:09:16;68.63;;;22.55;;
45344;SDS011;31078;48.304;11.896;2023-03-05T06:11:43;78.05;;;22.50;;
45344;SDS011;31078;48.304;11.896;2023-03-05T06:14:10;67.20;;;20.85;;
45344;SDS011;31078;48.304;11.896;2023-03-05T06:16:37;66.40;;;22.50;;
45344;SDS011;31078;48.304;11.896;2023-03-05T06:19:04;61.88;;;21.13;;
45344;SDS011;31078;48.304;11.896;2023-03-05T06:21:32;73.35;;;22.65;;
45344;SDS011;31078;48.304;11.896;2023-03-05T06:23:58;68.90;;;21.48;;
45344;SDS011;31078;48.304;11.896;2023-03-05T06:26:25;63.80;;;21.40;;
45344;SDS011;31078;48.304;11.896;2023-03-05T06:28:52;55.17;;;20.73;;
45344;SDS011;31078;48.304;11.896;2023-03-05T06:31:19;66.55;;;22.83;;
45344;SDS011;31078;48.304;11.896;2023-03-05T06:33:48;71.85;;;21.75;;
45344;SDS011;31078;48.304;11.896;2023-03-05T06:36:15;54.92;;;21.27;;
45344;SDS011;31078;48.304;11.896;2023-03-05T06:38:45;68.13;;;21.95;;
45344;SDS011;31078;48.304;11.896;2023-03-05T06:41:12;72.78;;;23.20;;
45344;SDS011;31078;48.304;11.896;2023-03-05T06:43:40;65.90;;;21.15;;
45344;SDS011;31078;48.304;11.896;2023-03-05T06:46:10;70.90;;;20.63;;
45344;SDS011;31078;48.304;11.896;2023-03-05T06:48:38;73.63;;;23.52;;
45344;SDS011;31078;48.304;11.896;2023-03-05T06:51:10;74.68;;;23.00;;
45344;SDS011;31078;48.304;11.896;2023-03-05T06:53:38;70.80;;;22.30;;
45344;SDS011;31078;48.304;11.896;2023-03-05T06:56:06;76.78;;;23.08;;
45344;SDS011;31078;48.304;11.896;2023-03-05T06:58:33;69.53;;;22.63;;
45344;SDS011;31078;48.304;11.896;2023-03-05T07:01:00;76.15;;;23.55;;
45344;SDS011;31078;48.304;11.896;2023-03-05T07:03:29;77.72;;;23.75;;
45344;SDS011;31078;48.304;11.896;2023-03-05T07:05:55;58.83;;;21.15;;
45344;SDS011;31078;48.304;11.896;2023-03-05T07:08:22;72.43;;;22.08;;
45344;SDS011;31078;48.304;11.896;2023-03-05T07:10:48;73.55;;;23.58;;
45344;SDS011;31078;48.304;11.896;2023-03-05T07:13:16;68.32;;;22.75;;
45344;SDS011;31078;48.304;11.896;2023-03-05T07:15:42;72.10;;;22.85;;
45344;SDS011;31078;48.304;11.896;2023-03-05T07:18:09;70.40;;;22.33;;
45344;SDS011;31078;48.304;11.896;2023-03-05T07:20:36;75.43;;;22.52;;
45344;SDS011;31078;48.304;11.896;2023-03-05T07:23:03;73.93;;;23.40;;
45344;SDS011;31078;48.304;11.896;2023-03-05T07:25:29;66.85;;;22.70;;
45344;SDS011;31078;48.304;11.896;2023-03-05T07:27:56;61.78;;;22.10;;
45344;SDS011;31078;48.304;11.896;2023-03-05T07:30:24;68.25;;;22.77;;
45344;SDS011;31078;48.304;11.896;2023-03-05T07:32:50;62.00;;;22.33;;
45344;SDS011;31078;48.304;11.896;2023-03-05T07:35:17;59.40;;;21.08;;
45344;SDS011;31078;48.304;11.896;2023-03-05T07:37:43;55.97;;;21.08;;
45344;SDS011;31078;48.304;11.896;2023-03-05T07:40:10;60.75;;;22.08;;
45344;SDS011;31078;48.304;11.896;2023-03-05T07:42:37;63.67;;;22.52;;
45344;SDS011;31078;48.304;11.896;2023-03-05T07:45:04;71.18;;;20.98;;
45344;SDS011;31078;48.304;11.896;2023-03-05T07:47:33;59.03;;;20.85;;
45344;SDS011;31078;48.304;11.896;2023-03-05T07:50:00;62.42;;;21.58;;
45344;SDS011;31078;48.304;11.896;2023-03-05T07:52:27;68.15;;;22.48;;
45344;SDS011;31078;48.304;11.896;2023-03-05T07:54:54;65.05;;;21.92;;
45344;SDS011;31078;48.304;11.896;2023-03-05T07:57:21;67.05;;;22.95;;
45344;SDS011;31078;48.304;11.896;2023-03-05T07:59:48;63.40;;;20.30;;
45344;SDS011;31078;48.304;11.896;2023-03-05T08:02:14;60.35;;;21.83;;
45344;SDS011;31078;48.304;11.896;2023-03-05T08:04:44;56.88;;;19.92;;
45344;SDS011;31078;48.304;11.896;2023-03-05T08:07:12;70.15;;;22.80;;
45344;SDS011;31078;48.304;11.896;2023-03-05T08:09:39;72.47;;;23.27;;
45344;SDS011;31078;48.304;11.896;2023-03-05T08:12:07;70.70;;;23.35;;
45344;SDS011;31078;48.304;11.896;2023-03-05T08:14:34;66.63;;;21.65;;
45344;SDS011;31078;48.304;11.896;2023-03-05T08:17:02;65.93;;;22.30;;
45344;SDS011;31078;48.304;11.896;2023-03-05T08:19:29;58.17;;;21.27;;
45344;SDS011;31078;48.304;11.896;2023-03-05T08:21:58;69.60;;;22.33;;
45344;SDS011;31078;48.304;11.896;2023-03-05T08:24:24;60.60;;;20.65;;
45344;SDS011;31078;48.304;11.896;2023-03-05T08:26:53;63.10;;;21.42;;
45344;SDS011;31078;48.304;11.896;2023-03-05T08:29:20;76.55;;;23.40;;
45344;SDS011;31078;48.304;11.896;2023-03-05T08:31:47;65.50;;;22.33;;
45344;SDS011;31078;48.304;11.896;2023-03-05T08:34:17;62.10;;;20.58;;
45344;SDS011;31078;48.304;11.896;2023-03-05T08:36:44;62.15;;;20.38;;
45344;SDS011;31078;48.304;11.896;2023-03-05T08:39:12;66.47;;;20.85;;
45344;SDS011;31078;48.304;11.896;2023-03-05T08:41:39;60.47;;;21.15;;
45344;SDS011;31078;48.304;11.896;2023-03-05T08:44:05;60.78;;;21.90;;
45344;SDS011;31078;48.304;11.896;2023-03-05T08:46:32;63.65;;;21.13;;
45344;SDS011;31078;48.304;11.896;2023-03-05T08:48:58;60.88;;;20.77;;
45344;SDS011;31078;48.304;11.896;2023-03-05T08:51:25;65.85;;;22.05;;
45344;SDS011;31078;48.304;11.896;2023-03-05T08:53:52;66.97;;;22.05;;
45344;SDS011;31078;48.304;11.896;2023-03-05T08:56:21;64.93;;;21.80;;
45344;SDS011;31078;48.304;11.896;2023-03-05T08:58:47;67.43;;;23.40;;
45344;SDS011;31078;48.304;11.896;2023-03-05T09:01:16;65.18;;;20.85;;
45344;SDS011;31078;48.304;11.896;2023-03-05T09:03:43;58.70;;;20.60;;
45344;SDS011;31078;48.304;11.896;2023-03-05T09:06:10;78.53;;;24.75;;
45344;SDS011;31078;48.304;11.896;2023-03-05T09:08:38;71.85;;;22.08;;
45344;SDS011;31078;48.304;11.896;2023-03-05T09:11:05;80.25;;;23.77;;
45344;SDS011;31078;48.304;11.896;2023-03-05T09:13:33;59.75;;;21.23;;
45344;SDS011;31078;48.304;11.896;2023-03-05T09:16:01;77.50;;;22.65;;
45344;SDS011;31078;48.304;11.896;2023-03-05T09:18:29;65.72;;;22.08;;
45344;SDS011;31078;48.304;11.896;2023-03-05T09:20:56;70.45;;;23.75;;
45344;SDS011;31078;48.304;11.896;2023-03-05T09:23:22;71.60;;;23.15;;
45344;SDS011;31078;48.304;11.896;2023-03-05T09:25:49;72.72;;;22.45;;
45344;SDS011;31078;48.304;11.896;2023-03-05T09:28:16;74.45;;;22.30;;
45344;SDS011;31078;48.304;11.896;2023-03-05T09:30:44;67.45;;;21.63;;
45344;SDS011;31078;48.304;11.896;2023-03-05T09:33:10;62.75;;;21.92;;
45344;SDS011;31078;48.304;11.896;2023-03-05T09:35:37;68.43;;;22.70;;
45344;SDS011;31078;48.304;11.896;2023-03-05T09:38:04;65.45;;;21.50;;
45344;SDS011;31078;48.304;11.896;2023-03-05T09:40:34;64.80;;;21.60;;
45344;SDS011;31078;48.304;11.896;2023-03-05T09:43:12;59.20;;;22.00;;
45344;SDS011;31078;48.304;11.896;2023-03-05T09:45:56;51.45;;;18.63;;
45344;SDS011;31078;48.304;11.896;2023-03-05T09:48:33;56.13;;;20.27;;
45344;SDS011;31078;48.304;11.896;2023-03-05T09:51:12;61.65;;;21.42;;
45344;SDS011;31078;48.304;11.896;2023-03-05T09:53:45;54.67;;;20.95;;
45344;SDS011;31078;48.304;11.896;2023-03-05T09:56:14;55.53;;;20.27;;
45344;SDS011;31078;48.304;11.896;2023-03-05T09:58:44;60.25;;;21.25;;
45344;SDS011;31078;48.304;11.896;2023-03-05T10:01:16;50.53;;;19.35;;
45344;SDS011;31078;48.304;11.896;2023-03-05T10:03:50;62.72;;;20.85;;
45344;SDS011;31078;48.304;11.896;2023-03-05T10:06:21;51.85;;;18.58;;
45344;SDS011;31078;48.304;11.896;2023-03-05T10:08:53;57.05;;;20.20;;
45344;SDS011;31078;48.304;11.896;2023-03-05T10:11:29;48.17;;;19.98;;
45344;SDS011;31078;48.304;11.896;2023-03-05T10:14:03;60.97;;;21.77;;
45344;SDS011;31078;48.304;11.896;2023-03-05T10:16:38;54.17;;;20.13;;
45344;SDS011;31078;48.304;11.896;2023-03-05T10:19:35;57.13;;;20.33;;
45344;SDS011;31078;48.304;11.896;2023-03-05T10:22:21;53.67;;;19.73;;
45344;SDS011;31078;48.304;11.896;2023-03-05T10:24:55;74.80;;;23.30;;
45344;SDS011;31078;48.304;11.896;2023-03-05T10:27:38;70.78;;;21.92;;
45344;SDS011;31078;48.304;11.896;2023-03-05T10:30:17;52.25;;;19.35;;
45344;SDS011;31078;48.304;11.896;2023-03-05T10:32:57;53.15;;;19.17;;
45344;SDS011;31078;48.304;11.896;2023-03-05T10:35:45;59.63;;;20.20;;
45344;SDS011;31078;48.304;11.896;2023-03-05T10:38:30;60.05;;;19.80;;
45344;SDS011;31078;48.304;11.896;2023-03-05T10:41:10;59.10;;;20.95;;
45344;SDS011;31078;48.304;11.896;2023-03-05T10:43:47;59.20;;;19.60;;
45344;SDS011;31078;48.304;11.896;2023-03-05T10:46:22;54.90;;;19.10;;
45344;SDS011;31078;48.304;11.896;2023-03-05T10:48:58;54.08;;;20.15;;
45344;SDS011;31078;48.304;11.896;2023-03-05T10:51:27;64.63;;;20.63;;
45344;SDS011;31078;48.304;11.896;2023-03-05T10:54:01;53.88;;;20.08;;
45344;SDS011;31078;48.304;11.896;2023-03-05T10:56:34;68.63;;;23.30;;
45344;SDS011;31078;48.304;11.896;2023-03-05T10:59:01;50.90;;;17.92;;
45344;SDS011;31078;48.304;11.896;2023-03-05T11:01:28;57.47;;;21.00;;
45344;SDS011;31078;48.304;11.896;2023-03-05T11:03:56;62.75;;;21.00;;
45344;SDS011;31078;48.304;11.896;2023-03-05T11:06:28;53.17;;;18.38;;
45344;SDS011;31078;48.304;11.896;2023-03-05T11:09:16;70.75;;;21.70;;
45344;SDS011;31078;48.304;11.896;2023-03-05T11:12:02;54.47;;;18.55;;
45344;SDS011;31078;48.304;11.896;2023-03-05T11:14:38;75.10;;;22.40;;
45344;SDS011;31078;48.304;11.896;2023-03-05T11:19:50;72.00;;;20.10;;
45344;SDS011;31078;48.304;11.896;2023-03-05T11:22:17;55.67;;;19.23;;
45344;SDS011;31078;48.304;11.896;2023-03-05T11:25:01;52.88;;;17.80;;
45344;SDS011;31078;48.304;11.896;2023-03-05T11:27:31;69.18;;;20.50;;
45344;SDS011;31078;48.304;11.896;2023-03-05T11:30:01;57.35;;;18.42;;
45344;SDS011;31078;48.304;11.896;2023-03-05T11:32:29;45.17;;;16.65;;
45344;SDS011;31078;48.304;11.896;2023-03-05T11:34:57;65.63;;;19.67;;
45344;SDS011;31078;48.304;11.896;2023-03-05T11:37:29;52.55;;;17.23;;
45344;SDS011;31078;48.304;11.896;2023-03-05T11:40:17;48.03;;;16.65;;
45344;SDS011;31078;48.304;11.896;2023-03-05T11:42:49;38.92;;;16.75;;
45344;SDS011;31078;48.304;11.896;2023-03-05T11:45:21;50.10;;;16.67;;
45344;SDS011;31078;48.304;11.896;2023-03-05T11:47:50;46.05;;;16.50;;
45344;SDS011;31078;48.304;11.896;2023-03-05T11:50:24;47.72;;;16.73;;
45344;SDS011;31078;48.304;11.896;2023-03-05T11:53:12;51.60;;;18.58;;
45344;SDS011;31078;48.304;11.896;2023-03-05T11:55:46;49.85;;;18.13;;
45344;SDS011;31078;48.304;11.896;2023-03-05T11:58:24;80.15;;;20.20;;
45344;SDS011;31078;48.304;11.896;2023-03-05T12:00:56;50.85;;;17.85;;
45344;SDS011;31078;48.304;11.896;2023-03-05T12:03:24;51.33;;;16.85;;
45344;SDS011;31078;48.304;11.896;2023-03-05T12:06:07;52.90;;;19.23;;
45344;SDS011;31078;48.304;11.896;2023-03-05T12:08:40;44.67;;;16.92;;
45344;SDS011;31078;48.304;11.896;2023-03-05T12:11:14;48.33;;;17.95;;
45344;SDS011;31078;48.304;11.896;2023-03-05T12:13:43;45.75;;;15.80;;
45344;SDS011;31078;48.304;11.896;2023-03-05T12:16:13;41.92;;;16.15;;
45344;SDS011;31078;48.304;11.896;2023-03-05T12:18:53;40.20;;;16.38;;
45344;SDS011;31078;48.304;11.896;2023-03-05T12:21:31;48.03;;;16.55;;
45344;SDS011;31078;48.304;11.896;2023-03-05T12:24:01;37.88;;;15.35;;
45344;SDS011;31078;48.304;11.896;2023-03-05T12:29:28;45.65;;;16.38;;
45344;SDS011;31078;48.304;11.896;2023-03-05T12:31:58;44.88;;;16.55;;
45344;SDS011;31078;48.304;11.896;2023-03-05T12:34:35;42.13;;;16.13;;
45344;SDS011;31078;48.304;11.896;2023-03-05T12:37:15;52.38;;;16.83;;
45344;SDS011;31078;48.304;11.896;2023-03-05T12:40:23;42.47;;;16.08;;
45344;SDS011;31078;48.304;11.896;2023-03-05T12:42:51;44.13;;;15.27;;
45344;SDS011;31078;48.304;11.896;2023-03-05T12:45:24;47.63;;;16.23;;
45344;SDS011;31078;48.304;11.896;2023-03-05T12:51:10;52.83;;;18.05;;
45344;SDS011;31078;48.304;11.896;2023-03-05T12:53:41;43.88;;;15.25;;
45344;SDS011;31078;48.304;11.896;2023-03-05T12:56:12;49.75;;;17.10;;
45344;SDS011;31078;48.304;11.896;2023-03-05T12:58:45;41.67;;;15.40;;
45344;SDS011;31078;48.304;11.896;2023-03-05T13:01:18;47.63;;;15.63;;
45344;SDS011;31078;48.304;11.896;2023-03-05T13:04:00;49.58;;;16.58;;
45344;SDS011;31078;48.304;11.896;2023-03-05T13:06:35;38.50;;;14.32;;
45344;SDS011;31078;48.304;11.896;2023-03-05T13:09:06;50.53;;;15.77;;
45344;SDS011;31078;48.304;11.896;2023-03-05T13:11:41;40.13;;;14.98;;
45344;SDS011;31078;48.304;11.896;2023-03-05T13:17:23;48.88;;;14.98;;
45344;SDS011;31078;48.304;11.896;2023-03-05T13:19:55;53.00;;;16.50;;
45344;SDS011;31078;48.304;11.896;2023-03-05T13:22:24;52.20;;;16.52;;
45344;SDS011;31078;48.304;11.896;2023-03-05T13:27:51;42.72;;;13.00;;
45344;SDS011;31078;48.304;11.896;2023-03-05T13:30:30;43.53;;;13.23;;
45344;SDS011;31078;48.304;11.896;2023-03-05T13:32:56;44.33;;;13.02;;
45344;SDS011;31078;48.304;11.896;2023-03-05T13:35:29;44.70;;;13.77;;
45344;SDS011;31078;48.304;11.896;2023-03-05T13:37:57;38.88;;;13.75;;
45344;SDS011;31078;48.304;11.896;2023-03-05T13:40:26;46.00;;;15.18;;
45344;SDS011;31078;48.304;11.896;2023-03-05T13:43:07;37.17;;;14.55;;
45344;SDS011;31078;48.304;11.896;2023-03-05T13:45:36;38.35;;;13.30;;
45344;SDS011;31078;48.304;11.896;2023-03-05T13:48:04;46.13;;;14.35;;
45344;SDS011;31078;48.304;11.896;2023-03-05T13:50:32;49.17;;;14.65;;
45344;SDS011;31078;48.304;11.896;2023-03-05T13:53:12;45.83;;;14.57;;
45344;SDS011;31078;48.304;11.896;2023-03-05T13:55:41;48.88;;;14.57;;
45344;SDS011;31078;48.304;11.896;2023-03-05T14:01:08;47.97;;;14.02;;
45344;SDS011;31078;48.304;11.896;2023-03-05T14:03:38;61.58;;;16.70;;
45344;SDS011;31078;48.304;11.896;2023-03-05T14:06:11;46.73;;;14.27;;
45344;SDS011;31078;48.304;11.896;2023-03-05T14:08:38;53.92;;;15.05;;
45344;SDS011;31078;48.304;11.896;2023-03-05T14:11:12;49.60;;;15.52;;
45344;SDS011;31078;48.304;11.896;2023-03-05T14:13:40;57.60;;;16.15;;
45344;SDS011;31078;48.304;11.896;2023-03-05T14:16:11;56.38;;;16.15;;
45344;SDS011;31078;48.304;11.896;2023-03-05T14:18:50;55.28;;;16.48;;
45344;SDS011;31078;48.304;11.896;2023-03-05T14:21:18;52.50;;;15.32;;
45344;SDS011;31078;48.304;11.896;2023-03-05T14:23:46;47.85;;;15.07;;
45344;SDS011;31078;48.304;11.896;2023-03-05T14:26:21;48.08;;;12.90;;
45344;SDS011;31078;48.304;11.896;2023-03-05T14:28:53;41.75;;;13.32;;
45344;SDS011;31078;48.304;11.896;2023-03-05T14:31:22;42.05;;;12.88;;
45344;SDS011;31078;48.304;11.896;2023-03-05T14:33:50;72.05;;;15.40;;
45344;SDS011;31078;48.304;11.896;2023-03-05T14:36:24;52.80;;;14.48;;
45344;SDS011;31078;48.304;11.896;2023-03-05T14:38:53;60.25;;;15.10;;
45344;SDS011;31078;48.304;11.896;2023-03-05T14:41:29;41.85;;;12.07;;